sensor_id;sensor_type;location;lat;lon;timestamp;temperature;humidity
59208;DHT22;44977;53.132;6.408;2022-09-27T00:02:40;10.60;99.90
59208;DHT22;44977;53.132;6.408;2022-09-27T00:07:41;10.60;99.90
59208;DHT22;44977;53.132;6.408;2022-09-27T00:12:42;10.60;99.90
59208;DHT22;44977;53.132;6.408;2022-09-27T00:17:43;10.50;99.90
59208;DHT22;44977;53.132;6.408;2022-09-27T00:22:45;10.50;99.90
59208;DHT22;44977;53.132;6.408;2022-09-27T00:27:47;10.50;99.90
59208;DHT22;44977;53.132;6.408;2022-09-27T00:32:49;10.50;99.90
59208;DHT22;44977;53.132;6.408;2022-09-27T00:37:52;10.50;99.90
59208;DHT22;44977;53.132;6.408;2022-09-27T00:42:52;10.40;99.90
59208;DHT22;44977;53.132;6.408;2022-09-27T00:47:57;10.40;99.90
59208;DHT22;44977;53.132;6.408;2022-09-27T00:58:05;10.30;99.90
59208;DHT22;44977;53.132;6.408;2022-09-27T01:03:08;10.30;99.90
59208;DHT22;44977;53.132;6.408;2022-09-27T01:08:12;10.30;99.90
59208;DHT22;44977;53.132;6.408;2022-09-27T01:13:19;10.30;99.90
59208;DHT22;44977;53.132;6.408;2022-09-27T01:23:49;10.30;99.90
59208;DHT22;44977;53.132;6.408;2022-09-27T01:29:10;10.20;99.90
59208;DHT22;44977;53.132;6.408;2022-09-27T01:50:03;10.20;99.90
59208;DHT22;44977;53.132;6.408;2022-09-27T01:55:07;10.20;99.90
59208;DHT22;44977;53.132;6.408;2022-09-27T02:00:10;10.20;99.90
59208;DHT22;44977;53.132;6.408;2022-09-27T02:05:13;10.20;99.90
59208;DHT22;44977;53.132;6.408;2022-09-27T02:10:21;10.10;99.90
59208;DHT22;44977;53.132;6.408;2022-09-27T02:15:23;10.10;99.90
59208;DHT22;44977;53.132;6.408;2022-09-27T02:20:48;10.10;99.90
59208;DHT22;44977;53.132;6.408;2022-09-27T02:31:12;10.10;99.90
59208;DHT22;44977;53.132;6.408;2022-09-27T02:36:12;10.00;99.90
59208;DHT22;44977;53.132;6.408;2022-09-27T02:41:17;10.10;99.90
59208;DHT22;44977;53.132;6.408;2022-09-27T02:46:40;10.00;99.90
59208;DHT22;44977;53.132;6.408;2022-09-27T02:57:48;10.00;99.90
59208;DHT22;44977;53.132;6.408;2022-09-27T03:03:14;10.00;99.90
59208;DHT22;44977;53.132;6.408;2022-09-27T03:08:17;9.90;99.90
59208;DHT22;44977;53.132;6.408;2022-09-27T03:13:18;9.90;99.90
59208;DHT22;44977;53.132;6.408;2022-09-27T03:18:19;9.90;99.90
59208;DHT22;44977;53.132;6.408;2022-09-27T03:23:20;9.80;99.90
59208;DHT22;44977;53.132;6.408;2022-09-27T03:28:20;9.70;99.90
59208;DHT22;44977;53.132;6.408;2022-09-27T03:33:21;9.80;99.90
59208;DHT22;44977;53.132;6.408;2022-09-27T03:38:22;9.80;99.90
59208;DHT22;44977;53.132;6.408;2022-09-27T03:43:22;9.80;99.90
59208;DHT22;44977;53.132;6.408;2022-09-27T03:48:23;9.70;99.90
59208;DHT22;44977;53.132;6.408;2022-09-27T03:53:24;9.70;99.90
59208;DHT22;44977;53.132;6.408;2022-09-27T03:58:25;9.70;99.90
59208;DHT22;44977;53.132;6.408;2022-09-27T04:03:25;9.70;99.90
59208;DHT22;44977;53.132;6.408;2022-09-27T04:08:26;9.70;99.90
59208;DHT22;44977;53.132;6.408;2022-09-27T04:13:28;9.70;99.90
59208;DHT22;44977;53.132;6.408;2022-09-27T04:18:29;9.70;99.90
59208;DHT22;44977;53.132;6.408;2022-09-27T04:23:29;9.70;99.90
59208;DHT22;44977;53.132;6.408;2022-09-27T04:28:30;9.60;99.90
59208;DHT22;44977;53.132;6.408;2022-09-27T04:33:31;9.60;99.90
59208;DHT22;44977;53.132;6.408;2022-09-27T04:38:32;9.60;99.90
59208;DHT22;44977;53.132;6.408;2022-09-27T04:43:33;9.60;99.90
59208;DHT22;44977;53.132;6.408;2022-09-27T04:48:33;9.60;99.90
59208;DHT22;44977;53.132;6.408;2022-09-27T04:53:34;9.60;99.90
59208;DHT22;44977;53.132;6.408;2022-09-27T04:58:35;9.60;99.90
59208;DHT22;44977;53.132;6.408;2022-09-27T05:03:36;9.50;99.90
59208;DHT22;44977;53.132;6.408;2022-09-27T05:08:37;9.60;99.90
59208;DHT22;44977;53.132;6.408;2022-09-27T05:13:37;9.50;99.90
59208;DHT22;44977;53.132;6.408;2022-09-27T05:18:38;9.50;99.90
59208;DHT22;44977;53.132;6.408;2022-09-27T05:23:39;9.50;99.90
59208;DHT22;44977;53.132;6.408;2022-09-27T05:28:39;9.50;99.90
59208;DHT22;44977;53.132;6.408;2022-09-27T05:33:43;9.50;99.90
59208;DHT22;44977;53.132;6.408;2022-09-27T05:38:44;9.50;99.90
59208;DHT22;44977;53.132;6.408;2022-09-27T05:43:45;9.50;99.90
59208;DHT22;44977;53.132;6.408;2022-09-27T05:48:46;9.50;99.90
59208;DHT22;44977;53.132;6.408;2022-09-27T05:53:47;9.50;99.90
59208;DHT22;44977;53.132;6.408;2022-09-27T05:58:47;9.50;99.90
59208;DHT22;44977;53.132;6.408;2022-09-27T06:03:48;9.50;99.90
59208;DHT22;44977;53.132;6.408;2022-09-27T06:08:49;9.50;99.90
59208;DHT22;44977;53.132;6.408;2022-09-27T06:13:50;9.50;99.90
59208;DHT22;44977;53.132;6.408;2022-09-27T06:18:50;9.50;99.90
59208;DHT22;44977;53.132;6.408;2022-09-27T06:23:51;9.50;99.90
59208;DHT22;44977;53.132;6.408;2022-09-27T06:28:53;9.50;99.90
59208;DHT22;44977;53.132;6.408;2022-09-27T06:33:54;9.50;99.90
59208;DHT22;44977;53.132;6.408;2022-09-27T06:38:54;9.50;99.90
59208;DHT22;44977;53.132;6.408;2022-09-27T06:43:55;9.60;99.90
59208;DHT22;44977;53.132;6.408;2022-09-27T06:48:56;9.60;99.90
59208;DHT22;44977;53.132;6.408;2022-09-27T06:53:56;9.70;99.90
59208;DHT22;44977;53.132;6.408;2022-09-27T06:58:57;9.70;99.90
59208;DHT22;44977;53.132;6.408;2022-09-27T07:04:16;9.70;99.90
59208;DHT22;44977;53.132;6.408;2022-09-27T07:09:18;9.80;99.90
59208;DHT22;44977;53.132;6.408;2022-09-27T07:14:18;9.80;99.90
59208;DHT22;44977;53.132;6.408;2022-09-27T07:19:20;9.80;99.90
59208;DHT22;44977;53.132;6.408;2022-09-27T07:24:20;9.90;99.90
59208;DHT22;44977;53.132;6.408;2022-09-27T07:29:21;10.10;99.90
59208;DHT22;44977;53.132;6.408;2022-09-27T07:34:21;10.20;99.90
59208;DHT22;44977;53.132;6.408;2022-09-27T07:39:22;10.40;99.90
59208;DHT22;44977;53.132;6.408;2022-09-27T07:44:23;10.50;99.90
59208;DHT22;44977;53.132;6.408;2022-09-27T07:49:23;10.60;99.90
59208;DHT22;44977;53.132;6.408;2022-09-27T07:54:24;10.70;99.90
59208;DHT22;44977;53.132;6.408;2022-09-27T07:59:25;10.80;99.90
59208;DHT22;44977;53.132;6.408;2022-09-27T08:04:26;10.80;99.90
59208;DHT22;44977;53.132;6.408;2022-09-27T08:09:26;10.80;99.90
59208;DHT22;44977;53.132;6.408;2022-09-27T08:14:27;10.90;99.90
59208;DHT22;44977;53.132;6.408;2022-09-27T08:19:29;10.90;99.90
59208;DHT22;44977;53.132;6.408;2022-09-27T08:24:29;11.00;99.90
59208;DHT22;44977;53.132;6.408;2022-09-27T08:29:30;11.10;99.90
59208;DHT22;44977;53.132;6.408;2022-09-27T08:34:31;11.30;99.90
59208;DHT22;44977;53.132;6.408;2022-09-27T08:39:32;11.50;99.90
59208;DHT22;44977;53.132;6.408;2022-09-27T08:50:23;11.50;99.90
59208;DHT22;44977;53.132;6.408;2022-09-27T08:55:36;11.50;99.90
59208;DHT22;44977;53.132;6.408;2022-09-27T09:00:38;11.60;99.90
59208;DHT22;44977;53.132;6.408;2022-09-27T09:05:39;11.80;99.90
59208;DHT22;44977;53.132;6.408;2022-09-27T09:16:56;12.00;99.90
59208;DHT22;44977;53.132;6.408;2022-09-27T09:22:13;12.10;99.90
59208;DHT22;44977;53.132;6.408;2022-09-27T09:27:30;12.20;99.90
59208;DHT22;44977;53.132;6.408;2022-09-27T09:38:28;12.40;99.90
59208;DHT22;44977;53.132;6.408;2022-09-27T09:43:44;12.20;99.90
59208;DHT22;44977;53.132;6.408;2022-09-27T09:49:12;11.80;99.90
59208;DHT22;44977;53.132;6.408;2022-09-27T09:54:29;11.60;99.90
59208;DHT22;44977;53.132;6.408;2022-09-27T09:59:46;11.40;99.90
59208;DHT22;44977;53.132;6.408;2022-09-27T10:04:49;11.30;99.90
59208;DHT22;44977;53.132;6.408;2022-09-27T10:09:51;11.30;99.90
59208;DHT22;44977;53.132;6.408;2022-09-27T10:14:55;11.30;99.90
59208;DHT22;44977;53.132;6.408;2022-09-27T10:19:57;11.40;99.90
59208;DHT22;44977;53.132;6.408;2022-09-27T10:25:01;11.50;99.90
59208;DHT22;44977;53.132;6.408;2022-09-27T10:30:03;11.70;99.90
59208;DHT22;44977;53.132;6.408;2022-09-27T10:40:32;12.10;99.90
59208;DHT22;44977;53.132;6.408;2022-09-27T10:45:34;12.20;99.90
59208;DHT22;44977;53.132;6.408;2022-09-27T10:50:36;12.00;99.90
59208;DHT22;44977;53.132;6.408;2022-09-27T10:55:41;11.80;99.90
59208;DHT22;44977;53.132;6.408;2022-09-27T11:00:43;11.70;99.90
59208;DHT22;44977;53.132;6.408;2022-09-27T11:05:43;11.60;99.90
59208;DHT22;44977;53.132;6.408;2022-09-27T11:37:15;12.10;99.90
59208;DHT22;44977;53.132;6.408;2022-09-27T11:52:55;12.80;99.90
59208;DHT22;44977;53.132;6.408;2022-09-27T11:58:08;12.70;99.90
59208;DHT22;44977;53.132;6.408;2022-09-27T12:09:11;12.70;99.90
59208;DHT22;44977;53.132;6.408;2022-09-27T12:19:37;12.60;99.90
59208;DHT22;44977;53.132;6.408;2022-09-27T12:24:41;12.60;99.90
59208;DHT22;44977;53.132;6.408;2022-09-27T12:29:45;12.50;99.90
59208;DHT22;44977;53.132;6.408;2022-09-27T12:35:18;12.40;99.90
59208;DHT22;44977;53.132;6.408;2022-09-27T12:40:25;12.40;99.90
59208;DHT22;44977;53.132;6.408;2022-09-27T13:00:57;12.90;99.90
59208;DHT22;44977;53.132;6.408;2022-09-27T13:11:24;12.90;99.90
59208;DHT22;44977;53.132;6.408;2022-09-27T13:16:27;12.90;99.90
59208;DHT22;44977;53.132;6.408;2022-09-27T13:26:47;12.70;99.90
59208;DHT22;44977;53.132;6.408;2022-09-27T13:36:54;11.60;99.90
59208;DHT22;44977;53.132;6.408;2022-09-27T13:42:04;11.30;99.90
59208;DHT22;44977;53.132;6.408;2022-09-27T13:57:45;11.20;99.90
59208;DHT22;44977;53.132;6.408;2022-09-27T14:08:37;11.40;99.90
59208;DHT22;44977;53.132;6.408;2022-09-27T14:13:40;11.40;99.90
59208;DHT22;44977;53.132;6.408;2022-09-27T14:18:48;11.50;99.90
59208;DHT22;44977;53.132;6.408;2022-09-27T14:23:50;11.50;99.90
59208;DHT22;44977;53.132;6.408;2022-09-27T14:28:51;11.40;99.90
59208;DHT22;44977;53.132;6.408;2022-09-27T14:34:05;11.50;99.90
59208;DHT22;44977;53.132;6.408;2022-09-27T14:39:24;11.50;99.90
59208;DHT22;44977;53.132;6.408;2022-09-27T14:44:29;11.50;99.90
59208;DHT22;44977;53.132;6.408;2022-09-27T14:49:31;11.50;99.90
59208;DHT22;44977;53.132;6.408;2022-09-27T14:54:32;11.50;99.90
59208;DHT22;44977;53.132;6.408;2022-09-27T14:59:34;11.50;99.90
59208;DHT22;44977;53.132;6.408;2022-09-27T15:04:35;11.50;99.90
59208;DHT22;44977;53.132;6.408;2022-09-27T15:09:37;11.50;99.90
59208;DHT22;44977;53.132;6.408;2022-09-27T15:14:39;11.50;99.90
59208;DHT22;44977;53.132;6.408;2022-09-27T15:20:14;11.50;99.90
59208;DHT22;44977;53.132;6.408;2022-09-27T15:25:22;11.50;99.90
59208;DHT22;44977;53.132;6.408;2022-09-27T15:30:27;11.50;99.90
59208;DHT22;44977;53.132;6.408;2022-09-27T15:35:34;11.50;99.90
59208;DHT22;44977;53.132;6.408;2022-09-27T15:45:49;11.50;99.90
59208;DHT22;44977;53.132;6.408;2022-09-27T15:50:50;11.50;99.90
59208;DHT22;44977;53.132;6.408;2022-09-27T15:55:51;11.50;99.90
59208;DHT22;44977;53.132;6.408;2022-09-27T16:00:57;11.50;99.90
59208;DHT22;44977;53.132;6.408;2022-09-27T16:06:00;11.40;99.90
59208;DHT22;44977;53.132;6.408;2022-09-27T16:11:01;11.40;99.90
59208;DHT22;44977;53.132;6.408;2022-09-27T16:16:05;11.40;99.90
59208;DHT22;44977;53.132;6.408;2022-09-27T16:21:06;11.30;99.90
59208;DHT22;44977;53.132;6.408;2022-09-27T16:26:06;11.30;99.90
59208;DHT22;44977;53.132;6.408;2022-09-27T16:31:08;11.20;99.90
59208;DHT22;44977;53.132;6.408;2022-09-27T16:36:11;11.20;99.90
59208;DHT22;44977;53.132;6.408;2022-09-27T16:41:18;11.00;99.90
59208;DHT22;44977;53.132;6.408;2022-09-27T16:46:19;10.80;99.90
59208;DHT22;44977;53.132;6.408;2022-09-27T16:51:22;10.70;99.90
59208;DHT22;44977;53.132;6.408;2022-09-27T16:56:42;10.60;99.90
59208;DHT22;44977;53.132;6.408;2022-09-27T17:01:43;10.40;99.90
59208;DHT22;44977;53.132;6.408;2022-09-27T17:06:44;10.40;99.90
59208;DHT22;44977;53.132;6.408;2022-09-27T17:11:45;10.30;99.90
59208;DHT22;44977;53.132;6.408;2022-09-27T17:16:46;10.20;99.90
59208;DHT22;44977;53.132;6.408;2022-09-27T17:21:47;10.10;99.90
59208;DHT22;44977;53.132;6.408;2022-09-27T17:26:48;10.00;99.90
59208;DHT22;44977;53.132;6.408;2022-09-27T17:31:49;9.90;99.90
59208;DHT22;44977;53.132;6.408;2022-09-27T17:36:50;9.80;99.90
59208;DHT22;44977;53.132;6.408;2022-09-27T17:41:51;9.80;99.90
59208;DHT22;44977;53.132;6.408;2022-09-27T17:46:52;9.70;99.90
59208;DHT22;44977;53.132;6.408;2022-09-27T17:52:12;9.60;99.90
59208;DHT22;44977;53.132;6.408;2022-09-27T17:57:13;9.50;99.90
59208;DHT22;44977;53.132;6.408;2022-09-27T18:02:14;9.50;99.90
59208;DHT22;44977;53.132;6.408;2022-09-27T18:07:14;9.50;99.90
59208;DHT22;44977;53.132;6.408;2022-09-27T18:12:15;9.50;99.90
59208;DHT22;44977;53.132;6.408;2022-09-27T18:17:16;9.40;99.90
59208;DHT22;44977;53.132;6.408;2022-09-27T18:22:17;9.40;99.90
59208;DHT22;44977;53.132;6.408;2022-09-27T18:27:19;9.40;99.90
59208;DHT22;44977;53.132;6.408;2022-09-27T18:32:20;9.40;99.90
59208;DHT22;44977;53.132;6.408;2022-09-27T18:37:21;9.40;99.90
59208;DHT22;44977;53.132;6.408;2022-09-27T18:42:21;9.30;99.90
59208;DHT22;44977;53.132;6.408;2022-09-27T18:47:22;9.30;99.90
59208;DHT22;44977;53.132;6.408;2022-09-27T18:52:23;9.30;99.90
59208;DHT22;44977;53.132;6.408;2022-09-27T18:57:23;9.30;99.90
59208;DHT22;44977;53.132;6.408;2022-09-27T19:02:24;9.20;99.90
59208;DHT22;44977;53.132;6.408;2022-09-27T19:07:25;9.20;99.90
59208;DHT22;44977;53.132;6.408;2022-09-27T19:12:26;9.20;99.90
59208;DHT22;44977;53.132;6.408;2022-09-27T19:17:26;9.20;99.90
59208;DHT22;44977;53.132;6.408;2022-09-27T19:22:28;9.20;99.90
59208;DHT22;44977;53.132;6.408;2022-09-27T19:27:29;9.20;99.90
59208;DHT22;44977;53.132;6.408;2022-09-27T19:32:30;9.10;99.90
59208;DHT22;44977;53.132;6.408;2022-09-27T19:37:31;9.20;99.90
59208;DHT22;44977;53.132;6.408;2022-09-27T19:42:32;9.20;99.90
59208;DHT22;44977;53.132;6.408;2022-09-27T19:47:33;9.10;99.90
59208;DHT22;44977;53.132;6.408;2022-09-27T19:52:34;9.10;99.90
59208;DHT22;44977;53.132;6.408;2022-09-27T19:57:35;9.00;99.90
59208;DHT22;44977;53.132;6.408;2022-09-27T20:02:35;9.00;99.90
59208;DHT22;44977;53.132;6.408;2022-09-27T20:07:36;9.00;99.90
59208;DHT22;44977;53.132;6.408;2022-09-27T20:12:37;9.00;99.90
59208;DHT22;44977;53.132;6.408;2022-09-27T20:17:37;8.90;99.90
59208;DHT22;44977;53.132;6.408;2022-09-27T20:22:38;8.90;99.90
59208;DHT22;44977;53.132;6.408;2022-09-27T20:27:39;8.90;99.90
59208;DHT22;44977;53.132;6.408;2022-09-27T20:32:39;8.90;99.90
59208;DHT22;44977;53.132;6.408;2022-09-27T20:37:40;8.90;99.90
59208;DHT22;44977;53.132;6.408;2022-09-27T20:42:41;8.90;99.90
59208;DHT22;44977;53.132;6.408;2022-09-27T20:47:41;8.90;99.90
59208;DHT22;44977;53.132;6.408;2022-09-27T20:52:42;8.90;99.90
59208;DHT22;44977;53.132;6.408;2022-09-27T20:57:42;8.90;99.90
59208;DHT22;44977;53.132;6.408;2022-09-27T21:02:43;8.80;99.90
59208;DHT22;44977;53.132;6.408;2022-09-27T21:07:44;8.80;99.90
59208;DHT22;44977;53.132;6.408;2022-09-27T21:12:44;8.80;99.90
59208;DHT22;44977;53.132;6.408;2022-09-27T21:17:45;8.80;99.90
59208;DHT22;44977;53.132;6.408;2022-09-27T21:22:46;8.80;99.90
59208;DHT22;44977;53.132;6.408;2022-09-27T21:27:52;8.80;99.90
59208;DHT22;44977;53.132;6.408;2022-09-27T21:32:54;8.80;99.90
59208;DHT22;44977;53.132;6.408;2022-09-27T21:37:55;8.70;99.90
59208;DHT22;44977;53.132;6.408;2022-09-27T21:42:56;8.70;99.90
59208;DHT22;44977;53.132;6.408;2022-09-27T21:47:57;8.70;99.90
59208;DHT22;44977;53.132;6.408;2022-09-27T21:52:57;8.70;99.90
59208;DHT22;44977;53.132;6.408;2022-09-27T21:57:58;8.70;99.90
59208;DHT22;44977;53.132;6.408;2022-09-27T22:02:59;8.60;99.90
59208;DHT22;44977;53.132;6.408;2022-09-27T22:07:59;8.60;99.90
59208;DHT22;44977;53.132;6.408;2022-09-27T22:13:00;8.60;99.90
59208;DHT22;44977;53.132;6.408;2022-09-27T22:18:01;8.60;99.90
59208;DHT22;44977;53.132;6.408;2022-09-27T22:23:02;8.50;99.90
59208;DHT22;44977;53.132;6.408;2022-09-27T22:28:03;8.50;99.90
59208;DHT22;44977;53.132;6.408;2022-09-27T22:33:03;8.50;99.90
59208;DHT22;44977;53.132;6.408;2022-09-27T22:38:04;8.50;99.90
59208;DHT22;44977;53.132;6.408;2022-09-27T22:43:05;8.50;99.90
59208;DHT22;44977;53.132;6.408;2022-09-27T22:48:05;8.50;99.90
59208;DHT22;44977;53.132;6.408;2022-09-27T22:53:06;8.40;99.90
59208;DHT22;44977;53.132;6.408;2022-09-27T22:58:07;8.40;99.90
59208;DHT22;44977;53.132;6.408;2022-09-27T23:03:08;8.40;99.90
59208;DHT22;44977;53.132;6.408;2022-09-27T23:08:09;8.30;99.90
59208;DHT22;44977;53.132;6.408;2022-09-27T23:13:10;8.30;99.90
59208;DHT22;44977;53.132;6.408;2022-09-27T23:18:10;8.30;99.90
59208;DHT22;44977;53.132;6.408;2022-09-27T23:23:14;8.20;99.90
59208;DHT22;44977;53.132;6.408;2022-09-27T23:28:14;8.20;99.90
59208;DHT22;44977;53.132;6.408;2022-09-27T23:33:15;8.20;99.90
59208;DHT22;44977;53.132;6.408;2022-09-27T23:38:16;8.10;99.90
59208;DHT22;44977;53.132;6.408;2022-09-27T23:43:16;8.10;99.90
59208;DHT22;44977;53.132;6.408;2022-09-27T23:48:17;8.10;99.90
59208;DHT22;44977;53.132;6.408;2022-09-27T23:53:19;8.00;99.90
59208;DHT22;44977;53.132;6.408;2022-09-27T23:58:20;8.00;99.90
